Time;durP1;ratioP1;P1;durP2;ratioP2;P2;SDS_P1;SDS_P2;PMS_P1;PMS_P2;Temp;Humidity;BMP_temperature;BMP_pressure;BME280_temperature;BME280_humidity;BME280_pressure;Samples;Min_cycle;Max_cycle;Signal;HPM_P1;HPM_P2
2022/04/13 00:01:56;;;;;;;1.10;0.70;;;17.60;66.70;;;;;;5014787;28;20516;-73
2022/04/13 00:04:22;;;;;;;1.75;0.65;;;17.60;66.70;;;;;;5012407;28;20030;-73
2022/04/13 00:06:48;;;;;;;0.75;0.75;;;17.60;66.80;;;;;;5014543;28;20024;-73
2022/04/13 00:09:13;;;;;;;1.33;0.77;;;17.60;66.80;;;;;;5014407;28;20022;-73
2022/04/13 00:11:39;;;;;;;1.55;0.77;;;17.60;66.80;;;;;;5026839;28;20030;-73
2022/04/13 00:14:05;;;;;;;2.00;0.50;;;17.60;66.90;;;;;;5033114;28;20100;-73
2022/04/13 00:16:30;;;;;;;1.58;0.70;;;17.60;66.80;;;;;;5032975;28;20568;-73
2022/04/13 00:18:56;;;;;;;0.82;0.63;;;17.60;66.90;;;;;;5025548;28;20547;-72
2022/04/13 00:21:22;;;;;;;2.25;0.93;;;17.60;66.90;;;;;;5012938;28;20497;-73
2022/04/13 00:23:47;;;;;;;1.38;0.63;;;17.60;66.90;;;;;;5013121;28;20057;-73
2022/04/13 00:26:13;;;;;;;4.10;0.80;;;17.60;67.00;;;;;;5012823;28;20068;-73
2022/04/13 00:28:39;;;;;;;1.35;0.70;;;17.60;67.00;;;;;;5012928;28;20089;-73
2022/04/13 00:31:04;;;;;;;1.33;0.60;;;17.60;67.00;;;;;;5014010;28;20021;-73
2022/04/13 00:33:32;;;;;;;1.33;0.65;;;17.60;67.00;;;;;;5012824;28;20037;-73
2022/04/13 00:35:58;;;;;;;0.52;0.52;;;17.60;67.00;;;;;;5013009;28;20492;-73
2022/04/13 00:38:23;;;;;;;1.23;0.80;;;17.60;67.00;;;;;;5013891;28;20037;-73
2022/04/13 00:40:49;;;;;;;1.08;0.60;;;17.60;67.00;;;;;;5013666;28;20026;-73
2022/04/13 00:43:15;;;;;;;1.20;0.70;;;17.60;67.00;;;;;;5013850;28;20022;-73
2022/04/13 00:45:47;;;;;;;0.70;0.70;;;17.60;67.00;;;;;;5012338;28;20030;-73
2022/04/13 00:48:31;;;;;;;0.88;0.55;;;17.60;67.10;;;;;;5013837;28;20157;-73
2022/04/13 00:50:56;;;;;;;0.95;0.43;;;17.60;67.20;;;;;;5012876;28;20037;-73
2022/04/13 00:53:25;;;;;;;1.30;0.52;;;17.50;67.20;;;;;;5012310;28;20025;-73
2022/04/13 00:55:55;;;;;;;2.33;0.70;;;17.60;67.20;;;;;;5012614;28;20076;-73
2022/04/13 00:58:23;;;;;;;2.28;0.60;;;17.60;67.30;;;;;;5013538;28;20030;-73
2022/04/13 01:00:49;;;;;;;2.53;0.52;;;17.60;67.30;;;;;;5012580;28;20105;-73
2022/04/13 01:03:18;;;;;;;0.93;0.60;;;17.60;67.30;;;;;;5012325;28;20049;-73
2022/04/13 01:05:48;;;;;;;1.65;0.90;;;17.60;67.30;;;;;;5012396;28;20102;-73
2022/04/13 01:08:14;;;;;;;2.85;0.60;;;17.60;67.30;;;;;;5011958;28;20064;-73
2022/04/13 01:10:43;;;;;;;0.90;0.57;;;17.60;67.40;;;;;;5017880;28;20021;-73
2022/04/13 01:13:09;;;;;;;0.73;0.50;;;17.60;67.30;;;;;;5033151;28;20071;-73
2022/04/13 01:15:35;;;;;;;0.90;0.75;;;17.60;67.40;;;;;;5033468;28;20032;-73
2022/04/13 01:18:01;;;;;;;1.63;0.60;;;17.60;67.40;;;;;;5030929;28;20029;-73
2022/04/13 01:20:27;;;;;;;1.48;0.52;;;17.60;67.40;;;;;;5013032;28;20026;-73
2022/04/13 01:22:52;;;;;;;1.13;0.70;;;17.60;67.50;;;;;;5013066;28;20026;-73
2022/04/13 01:25:18;;;;;;;0.68;0.60;;;17.60;67.50;;;;;;5013143;28;20022;-73
2022/04/13 01:27:44;;;;;;;1.48;0.68;;;17.60;67.50;;;;;;5013064;28;20026;-73
2022/04/13 01:30:10;;;;;;;3.08;0.90;;;17.60;67.60;;;;;;5013118;28;20100;-73
2022/04/13 01:32:36;;;;;;;1.05;0.50;;;17.60;67.60;;;;;;5011813;28;20400;-73
2022/04/13 01:35:02;;;;;;;1.38;0.70;;;17.60;67.60;;;;;;5013121;28;20018;-73
2022/04/13 01:37:27;;;;;;;1.67;0.57;;;17.60;67.60;;;;;;5012730;28;20029;-73
2022/04/13 01:39:54;;;;;;;1.67;0.50;;;17.60;67.60;;;;;;5012787;28;20026;-73
2022/04/13 01:42:19;;;;;;;2.53;0.60;;;17.60;67.60;;;;;;5012897;28;20049;-73
2022/04/13 01:44:45;;;;;;;2.38;0.70;;;17.60;67.60;;;;;;5011934;28;20400;-73
2022/04/13 01:47:11;;;;;;;0.50;0.50;;;17.60;67.60;;;;;;5012707;28;20046;-72
2022/04/13 01:49:37;;;;;;;1.55;0.40;;;17.60;67.60;;;;;;5011560;28;20026;-72
2022/04/13 01:52:04;;;;;;;4.07;0.70;;;17.60;67.60;;;;;;5011557;28;20022;-73
2022/04/13 01:54:29;;;;;;;1.65;1.02;;;17.60;67.60;;;;;;5011448;28;20555;-73
2022/04/13 01:56:55;;;;;;;1.30;0.65;;;17.60;67.70;;;;;;5012722;28;20025;-73
2022/04/13 01:59:21;;;;;;;1.33;0.63;;;17.60;67.70;;;;;;5011327;28;20404;-73
2022/04/13 02:01:47;;;;;;;1.23;0.60;;;17.60;67.70;;;;;;5012837;28;20255;-73
2022/04/13 02:04:19;;;;;;;0.47;0.47;;;17.60;67.80;;;;;;5011556;28;20544;-73
2022/04/13 02:06:45;;;;;;;;;;;17.60;67.80;;;;;;5011783;28;20042;-73
2022/04/13 02:09:11;;;;;;;0.60;0.60;;;17.50;68.00;;;;;;5012778;28;19947;-73
2022/04/13 02:11:37;;;;;;;0.90;0.50;;;17.50;68.10;;;;;;5026179;28;20029;-73
2022/04/13 02:14:02;;;;;;;0.73;0.47;;;17.50;68.10;;;;;;5031273;28;20109;-73
2022/04/13 02:16:28;;;;;;;0.45;0.40;;;17.60;68.00;;;;;;5031965;28;20057;-73
2022/04/13 02:18:53;;;;;;;1.33;0.63;;;17.50;68.00;;;;;;5024126;28;20026;-73
2022/04/13 02:21:19;;;;;;;1.20;0.60;;;17.60;68.00;;;;;;5012305;28;20026;-73
2022/04/13 02:23:46;;;;;;;0.90;0.60;;;17.60;68.00;;;;;;5011361;28;20022;-73
2022/04/13 02:26:12;;;;;;;1.15;0.40;;;17.50;68.00;;;;;;5011335;28;20022;-73
2022/04/13 02:28:38;;;;;;;3.28;0.55;;;17.60;68.00;;;;;;5013881;28;20022;-73
2022/04/13 02:31:04;;;;;;;0.80;0.60;;;17.60;68.00;;;;;;5015112;28;20030;-73
2022/04/13 02:33:31;;;;;;;1.15;0.50;;;17.60;68.00;;;;;;5016393;28;20064;-73
2022/04/13 02:35:58;;;;;;;1.85;0.70;;;17.60;68.00;;;;;;5014867;28;20427;-73
2022/04/13 02:38:24;;;;;;;1.42;0.50;;;17.60;68.00;;;;;;5014820;28;20064;-73
2022/04/13 02:40:50;;;;;;;0.45;0.45;;;17.60;68.00;;;;;;5016157;28;20061;-73
2022/04/13 02:43:16;;;;;;;0.90;0.50;;;17.60;68.00;;;;;;5016324;28;20022;-73
2022/04/13 02:45:41;;;;;;;0.85;0.50;;;17.60;68.10;;;;;;5014832;28;20026;-73
2022/04/13 02:48:08;;;;;;;1.05;0.70;;;17.60;68.10;;;;;;5014897;28;20408;-73
2022/04/13 02:50:34;;;;;;;1.52;0.77;;;17.60;68.00;;;;;;5015834;28;20112;-73
2022/04/13 02:52:59;;;;;;;1.13;0.50;;;17.60;68.10;;;;;;5014814;28;20061;-73
2022/04/13 02:55:25;;;;;;;1.70;0.70;;;17.60;68.20;;;;;;5014870;28;20160;-73
2022/04/13 02:57:51;;;;;;;0.98;0.50;;;17.60;68.10;;;;;;5016061;28;20025;-73
2022/04/13 03:00:17;;;;;;;1.20;0.93;;;17.60;68.10;;;;;;5015843;28;20091;-73
2022/04/13 03:02:44;;;;;;;3.00;0.55;;;17.60;68.10;;;;;;5014532;28;20108;-73
2022/04/13 03:05:10;;;;;;;0.50;0.40;;;17.50;68.10;;;;;;5015438;28;20488;-73
2022/04/13 03:07:36;;;;;;;1.02;0.40;;;17.60;68.20;;;;;;5014594;28;20029;-73
2022/04/13 03:10:05;;;;;;;0.52;0.40;;;17.50;68.10;;;;;;5015204;28;20022;-73
2022/04/13 03:12:32;;;;;;;3.05;1.20;;;17.50;68.10;;;;;;5034030;28;20052;-73
2022/04/13 03:14:59;;;;;;;0.93;0.63;;;17.50;68.20;;;;;;5035473;28;20052;-73
2022/04/13 03:17:24;;;;;;;0.50;0.50;;;17.50;68.10;;;;;;5035082;28;20035;-73
2022/04/13 03:19:50;;;;;;;1.15;0.63;;;17.50;68.20;;;;;;5019014;28;20030;-73
2022/04/13 03:22:15;;;;;;;1.27;0.60;;;17.50;68.10;;;;;;5014228;28;20028;-73
2022/04/13 03:24:41;;;;;;;1.52;0.50;;;17.50;68.10;;;;;;5015154;28;20026;-73
2022/04/13 03:27:07;;;;;;;0.40;0.40;;;17.60;68.30;;;;;;5014215;28;20034;-73
2022/04/13 03:29:32;;;;;;;0.40;0.40;;;17.50;68.20;;;;;;5015382;28;20022;-73
2022/04/13 03:31:58;;;;;;;0.73;0.52;;;17.50;68.20;;;;;;5015371;28;20687;-73
2022/04/13 03:34:24;;;;;;;0.60;0.40;;;17.50;68.20;;;;;;5013880;28;20067;-73
2022/04/13 03:36:50;;;;;;;1.05;0.60;;;17.50;68.20;;;;;;5015129;28;20594;-73
2022/04/13 03:39:16;;;;;;;2.10;0.60;;;17.50;68.30;;;;;;5012788;28;20022;-73
2022/04/13 03:41:42;;;;;;;1.70;0.40;;;17.50;68.30;;;;;;5013760;28;20025;-73
2022/04/13 03:44:08;;;;;;;0.88;0.60;;;17.50;68.30;;;;;;5013770;28;20029;-73
2022/04/13 03:46:33;;;;;;;0.47;0.40;;;17.50;68.30;;;;;;5013607;28;20084;-73
2022/04/13 03:48:59;;;;;;;1.08;0.47;;;17.50;68.40;;;;;;5013334;28;20026;-73
2022/04/13 03:51:25;;;;;;;0.88;0.52;;;17.50;68.40;;;;;;5014999;28;20022;-73
2022/04/13 03:53:51;;;;;;;1.00;0.57;;;17.50;68.40;;;;;;5013670;28;20030;-73
2022/04/13 03:56:17;;;;;;;2.50;0.70;;;17.50;68.40;;;;;;5013575;28;20218;-73
2022/04/13 03:58:42;;;;;;;1.67;0.60;;;17.50;68.40;;;;;;5014540;28;20030;-73
2022/04/13 04:01:11;;;;;;;0.50;0.50;;;17.50;68.40;;;;;;5014597;28;20476;-73
2022/04/13 04:03:37;;;;;;;0.35;0.35;;;17.50;68.40;;;;;;5013092;28;20041;-73
2022/04/13 04:06:03;;;;;;;1.13;0.50;;;17.50;68.40;;;;;;5013586;28;20469;-73
2022/04/13 04:08:29;;;;;;;1.65;0.70;;;17.50;68.40;;;;;;5014330;28;20026;-73
2022/04/13 04:10:55;;;;;;;0.85;0.50;;;17.50;68.40;;;;;;5021011;28;20032;-73
2022/04/13 04:13:21;;;;;;;0.90;0.47;;;17.50;68.40;;;;;;5033162;28;20022;-73
2022/04/13 04:15:46;;;;;;;0.70;0.60;;;17.50;68.40;;;;;;5032916;28;20034;-73
2022/04/13 04:18:12;;;;;;;0.95;0.40;;;17.50;68.40;;;;;;5031310;28;20013;-73
2022/04/13 04:20:37;;;;;;;0.82;0.50;;;17.50;68.40;;;;;;5014234;28;20030;-73
2022/04/13 04:23:03;;;;;;;0.47;0.47;;;17.50;68.40;;;;;;5014230;28;20104;-73
2022/04/13 04:25:29;;;;;;;1.10;0.50;;;17.50;68.40;;;;;;5014297;28;20112;-73
2022/04/13 04:27:55;;;;;;;1.05;0.60;;;17.50;68.40;;;;;;5013057;28;20022;-73
2022/04/13 04:30:20;;;;;;;3.17;0.80;;;17.50;68.40;;;;;;5013122;28;20562;-73
2022/04/13 04:32:46;;;;;;;1.33;0.50;;;17.50;68.40;;;;;;5013939;28;20018;-73
2022/04/13 04:35:12;;;;;;;0.57;0.40;;;17.50;68.40;;;;;;5012890;28;20034;-73
2022/04/13 04:37:37;;;;;;;0.68;0.50;;;17.50;68.40;;;;;;5013917;28;20133;-73
2022/04/13 04:40:03;;;;;;;0.65;0.47;;;17.40;68.40;;;;;;5013997;28;20026;-73
2022/04/13 04:42:29;;;;;;;1.42;0.47;;;17.40;68.40;;;;;;5012726;28;20037;-73
2022/04/13 04:44:58;;;;;;;2.60;0.47;;;17.40;68.40;;;;;;5013946;28;20030;-73
2022/04/13 04:47:24;;;;;;;0.70;0.50;;;17.50;68.40;;;;;;5012350;28;20049;-73
2022/04/13 04:49:50;;;;;;;1.75;0.40;;;17.40;68.50;;;;;;5013718;28;20061;-73
2022/04/13 04:52:15;;;;;;;0.40;0.40;;;17.40;68.50;;;;;;5013436;28;20045;-73
2022/04/13 04:54:41;;;;;;;0.40;0.40;;;17.40;68.50;;;;;;5013761;28;20523;-73
2022/04/13 04:57:08;;;;;;;1.25;0.40;;;17.40;68.40;;;;;;5013704;28;20095;-73
2022/04/13 04:59:34;;;;;;;0.85;0.40;;;17.40;68.50;;;;;;5012243;28;20492;-73
2022/04/13 05:02:00;;;;;;;0.82;0.40;;;17.40;68.50;;;;;;5012331;28;20026;-73
2022/04/13 05:04:26;;;;;;;0.40;0.40;;;17.40;68.50;;;;;;5013688;28;20519;-73
2022/04/13 05:06:51;;;;;;;0.95;0.52;;;17.50;68.50;;;;;;5012235;28;20041;-73
2022/04/13 05:09:18;;;;;;;0.82;0.50;;;17.40;68.60;;;;;;5013385;28;20447;-73
2022/04/13 05:11:44;;;;;;;1.92;0.47;;;17.40;68.50;;;;;;5027858;28;20026;-73
2022/04/13 05:14:10;;;;;;;0.50;0.50;;;17.40;68.50;;;;;;5033202;28;20068;-73
2022/04/13 05:16:36;;;;;;;1.00;0.50;;;17.40;68.60;;;;;;5030444;28;20033;-72
2022/04/13 05:19:02;;;;;;;1.02;0.45;;;17.40;68.60;;;;;;5030647;28;20113;-73
2022/04/13 05:21:29;;;;;;;2.80;0.70;;;17.40;68.60;;;;;;5046171;28;20048;-73
2022/04/13 05:23:55;;;;;;;0.47;0.40;;;17.40;68.60;;;;;;5029328;28;20021;-72
2022/04/13 05:26:20;;;;;;;0.75;0.40;;;17.40;68.60;;;;;;5031258;28;20029;-73
2022/04/13 05:28:48;;;;;;;0.43;0.43;;;17.40;68.60;;;;;;5030611;28;20033;-73
2022/04/13 05:31:15;;;;;;;0.50;0.30;;;17.40;68.60;;;;;;5029586;28;20108;-73
2022/04/13 05:33:42;;;;;;;1.20;0.70;;;17.40;68.70;;;;;;5033302;28;20040;-73
2022/04/13 05:36:08;;;;;;;0.57;0.30;;;17.40;68.60;;;;;;5062499;28;20112;-73
2022/04/13 05:38:34;;;;;;;0.95;0.68;;;17.40;68.60;;;;;;5062842;28;20116;-74
2022/04/13 05:40:59;;;;;;;2.58;0.55;;;17.40;68.70;;;;;;5062991;28;20515;-74
2022/04/13 05:43:25;;;;;;;0.55;0.38;;;17.40;68.70;;;;;;5030851;28;20452;-74
2022/04/13 05:45:51;;;;;;;0.30;0.30;;;17.40;68.60;;;;;;5036764;28;20033;-74
2022/04/13 05:48:17;;;;;;;2.25;0.40;;;17.40;68.50;;;;;;5036580;28;20230;-74
2022/04/13 05:50:47;;;;;;;0.68;0.40;;;17.40;68.50;;;;;;5062255;28;20049;-75
2022/04/13 05:53:15;;;;;;;0.50;0.50;;;17.40;68.50;;;;;;5032672;28;20021;-75
2022/04/13 05:55:40;;;;;;;0.52;0.40;;;17.40;68.40;;;;;;5034568;28;20035;-75
2022/04/13 05:58:06;;;;;;;1.13;0.50;;;17.40;68.40;;;;;;5035632;28;20021;-75
2022/04/13 06:00:31;;;;;;;1.23;0.77;;;17.40;68.30;;;;;;5033669;28;20065;-75
2022/04/13 06:02:57;;;;;;;0.77;0.43;;;17.30;68.30;;;;;;5031779;28;20014;-75
2022/04/13 06:05:24;;;;;;;1.20;0.50;;;17.30;68.20;;;;;;5032808;28;20022;-75
2022/04/13 06:07:50;;;;;;;0.75;0.30;;;17.30;68.30;;;;;;5035210;28;20021;-75
2022/04/13 06:10:17;;;;;;;0.50;0.40;;;17.30;68.20;;;;;;5062355;28;20070;-75
2022/04/13 06:12:44;;;;;;;0.70;0.28;;;17.30;68.20;;;;;;5034679;28;20018;-75
2022/04/13 06:15:11;;;;;;;0.73;0.35;;;17.30;68.10;;;;;;5063859;28;20018;-74
2022/04/13 06:17:36;;;;;;;0.80;0.60;;;17.30;68.10;;;;;;5032784;28;20481;-72
2022/04/13 06:20:03;;;;;;;0.85;0.50;;;17.20;68.00;;;;;;5031993;28;20071;-72
2022/04/13 06:22:32;;;;;;;1.17;0.55;;;17.20;68.00;;;;;;5030667;28;20400;-72
2022/04/13 06:25:00;;;;;;;2.75;0.70;;;17.30;68.00;;;;;;5030146;28;20033;-72
2022/04/13 06:27:26;;;;;;;2.08;1.10;;;17.20;68.00;;;;;;5030848;28;20021;-72
2022/04/13 06:29:53;;;;;;;4.00;0.85;;;17.20;68.00;;;;;;5031965;28;20029;-72
2022/04/13 06:32:18;;;;;;;3.63;1.10;;;17.20;67.90;;;;;;5031019;28;20379;-72
2022/04/13 06:34:44;;;;;;;2.90;1.02;;;17.20;67.90;;;;;;5030536;28;20030;-72
2022/04/13 06:37:10;;;;;;;5.28;0.95;;;17.20;68.00;;;;;;5031867;28;20499;-72
2022/04/13 06:39:35;;;;;;;3.92;1.48;;;17.20;67.90;;;;;;5031859;28;20472;-72
2022/04/13 06:42:01;;;;;;;6.45;1.27;;;17.20;67.90;;;;;;5031718;28;20029;-72
2022/04/13 06:44:28;;;;;;;4.78;1.50;;;17.20;67.90;;;;;;5017014;28;20033;-72
2022/04/13 06:46:53;;;;;;;3.83;1.25;;;17.20;67.90;;;;;;5011945;28;20088;-72
2022/04/13 06:49:19;;;;;;;5.45;1.35;;;17.20;67.90;;;;;;5011097;28;20030;-72
2022/04/13 06:51:45;;;;;;;3.03;0.90;;;17.20;67.90;;;;;;5016872;28;20034;-72
2022/04/13 06:54:11;;;;;;;5.25;1.45;;;17.20;67.90;;;;;;5030803;28;20033;-72
2022/04/13 06:56:39;;;;;;;3.72;1.58;;;17.20;67.80;;;;;;5031640;28;20022;-72
2022/04/13 06:59:05;;;;;;;3.15;1.00;;;17.20;67.80;;;;;;5030495;28;20079;-72
2022/04/13 07:01:31;;;;;;;2.70;1.10;;;17.20;67.80;;;;;;5031816;28;20024;-72
2022/04/13 07:03:56;;;;;;;7.78;1.10;;;17.20;67.80;;;;;;5031879;28;20100;-72
2022/04/13 07:06:22;;;;;;;5.25;1.70;;;17.20;67.80;;;;;;5031822;28;20023;-72
2022/04/13 07:08:47;;;;;;;3.25;1.17;;;17.20;67.70;;;;;;5031841;28;20033;-72
2022/04/13 07:11:13;;;;;;;3.63;1.27;;;17.20;67.80;;;;;;5031443;28;20385;-72
2022/04/13 07:13:39;;;;;;;2.47;1.23;;;17.20;67.70;;;;;;5031415;28;20033;-72
2022/04/13 07:16:04;;;;;;;7.13;1.33;;;17.20;67.70;;;;;;5035263;28;20028;-72
2022/04/13 07:18:30;;;;;;;4.72;1.50;;;17.20;67.70;;;;;;5017466;28;20030;-72
2022/04/13 07:20:56;;;;;;;4.68;1.40;;;17.20;67.70;;;;;;5035243;28;20506;-72
2022/04/13 07:23:21;;;;;;;5.25;1.70;;;17.20;67.70;;;;;;5035279;28;20407;-72
2022/04/13 07:25:47;;;;;;;4.00;1.17;;;17.10;67.60;;;;;;5034921;28;20079;-72
2022/04/13 07:28:13;;;;;;;8.25;1.38;;;17.20;67.70;;;;;;5034957;28;20480;-72
2022/04/13 07:30:39;;;;;;;3.08;1.13;;;17.10;67.60;;;;;;5035227;28;20029;-72
2022/04/13 07:33:04;;;;;;;4.10;1.25;;;17.20;67.70;;;;;;5033839;28;20033;-72
2022/04/13 07:35:31;;;;;;;4.43;1.15;;;17.10;67.60;;;;;;5034868;28;20025;-72
2022/04/13 07:37:57;;;;;;;3.35;1.30;;;17.10;67.50;;;;;;5033921;28;20507;-72
2022/04/13 07:40:22;;;;;;;6.43;2.08;;;17.10;67.50;;;;;;5033324;28;20033;-72
2022/04/13 07:42:48;;;;;;;5.32;1.33;;;17.10;67.50;;;;;;5029861;28;20030;-72
2022/04/13 07:45:14;;;;;;;4.03;1.50;;;17.10;67.50;;;;;;5013995;28;20022;-72
2022/04/13 07:47:40;;;;;;;3.47;1.40;;;17.10;67.50;;;;;;5013726;28;20046;-72
2022/04/13 07:50:06;;;;;;;4.93;1.50;;;17.10;67.40;;;;;;5014905;28;20105;-72
2022/04/13 07:52:33;;;;;;;5.47;1.42;;;17.10;67.40;;;;;;5013799;28;20022;-72
2022/04/13 07:54:59;;;;;;;3.78;1.27;;;17.10;67.50;;;;;;5013500;28;20476;-72
2022/04/13 07:57:25;;;;;;;5.75;0.88;;;17.10;67.40;;;;;;5013739;28;20022;-72
2022/04/13 07:59:50;;;;;;;4.05;1.63;;;17.10;67.40;;;;;;5014704;28;20053;-72
2022/04/13 08:02:20;;;;;;;6.53;1.50;;;17.10;67.40;;;;;;5014715;28;20061;-72
2022/04/13 08:04:46;;;;;;;6.53;1.42;;;17.10;67.30;;;;;;5013728;28;20492;-72
2022/04/13 08:07:12;;;;;;;4.63;1.38;;;17.10;67.40;;;;;;5013303;28;20018;-72
2022/04/13 08:09:38;;;;;;;2.63;1.10;;;17.10;67.40;;;;;;5014388;28;20026;-72
2022/04/13 08:12:04;;;;;;;2.33;1.08;;;17.10;67.30;;;;;;5014541;28;20030;-72
2022/04/13 08:14:29;;;;;;;5.10;1.08;;;17.10;67.30;;;;;;5013219;28;20523;-72
2022/04/13 08:16:55;;;;;;;6.03;1.20;;;17.10;67.30;;;;;;5013147;28;20034;-72
2022/04/13 08:19:21;;;;;;;4.75;1.30;;;17.10;67.30;;;;;;5014335;28;20037;-72
2022/04/13 08:21:46;;;;;;;3.47;1.20;;;17.10;67.30;;;;;;5013082;28;20030;-72
2022/04/13 08:24:13;;;;;;;2.65;1.05;;;17.10;67.30;;;;;;5012990;28;20029;-72
2022/04/13 08:26:39;;;;;;;5.03;1.30;;;17.00;67.30;;;;;;5012244;28;20018;-72
2022/04/13 08:29:05;;;;;;;5.07;1.80;;;17.10;67.30;;;;;;5014212;28;20380;-72
2022/04/13 08:31:30;;;;;;;2.38;0.80;;;17.10;67.30;;;;;;5014116;28;20034;-72
2022/04/13 08:33:56;;;;;;;2.63;1.00;;;17.00;67.20;;;;;;5014247;28;20029;-72
2022/04/13 08:36:21;;;;;;;4.07;1.10;;;17.10;67.20;;;;;;5032901;28;20033;-72
2022/04/13 08:38:47;;;;;;;2.72;0.98;;;17.00;67.20;;;;;;5032554;28;20068;-72
2022/04/13 08:41:20;;;;;;;4.65;1.35;;;17.00;67.20;;;;;;5032654;28;20030;-72
2022/04/13 08:43:50;;;;;;;3.42;1.35;;;17.00;67.20;;;;;;5020951;28;20029;-72
2022/04/13 08:46:24;;;;;;;4.20;1.23;;;17.00;67.20;;;;;;5012476;28;20046;-72
2022/04/13 08:48:51;;;;;;;3.33;1.23;;;17.00;67.20;;;;;;5012680;28;20026;-72
2022/04/13 08:51:17;;;;;;;3.55;1.00;;;17.00;67.20;;;;;;5012802;28;20022;-72
2022/04/13 08:53:48;;;;;;;5.50;1.58;;;17.00;67.10;;;;;;5012383;28;20076;-72
2022/04/13 08:56:19;;;;;;;5.07;1.15;;;17.00;67.10;;;;;;5012510;28;21210;-72
2022/04/13 08:58:53;;;;;;;1.77;0.90;;;17.00;67.10;;;;;;5012582;28;20045;-72
2022/04/13 09:01:37;;;;;;;3.38;1.30;;;17.00;67.20;;;;;;5012651;28;20025;-72
2022/04/13 09:04:06;;;;;;;4.75;1.10;;;17.10;67.10;;;;;;5012530;28;20026;-72
2022/04/13 09:06:32;;;;;;;3.50;1.35;;;17.00;67.10;;;;;;5012394;28;20026;-72
2022/04/13 09:09:00;;;;;;;3.83;1.17;;;17.00;67.10;;;;;;5012263;28;20080;-72
2022/04/13 09:11:27;;;;;;;4.55;1.20;;;17.00;67.10;;;;;;5012384;28;20033;-72
2022/04/13 09:13:52;;;;;;;1.45;0.88;;;17.00;67.00;;;;;;5012341;28;20030;-72
2022/04/13 09:16:18;;;;;;;2.05;1.02;;;17.00;67.00;;;;;;5013273;28;20539;-72
2022/04/13 09:18:44;;;;;;;2.97;1.10;;;17.00;67.00;;;;;;5012117;28;20057;-72
2022/04/13 09:21:17;;;;;;;1.92;0.90;;;17.00;67.00;;;;;;5011757;28;20026;-72
2022/04/13 09:23:42;;;;;;;8.68;1.17;;;17.00;67.00;;;;;;5012229;28;20018;-72
2022/04/13 09:26:08;;;;;;;2.40;0.93;;;17.00;67.00;;;;;;5013113;28;20034;-72
2022/04/13 09:28:34;;;;;;;2.40;0.95;;;16.90;67.00;;;;;;5012015;28;20022;-72
2022/04/13 09:31:00;;;;;;;2.17;1.10;;;17.00;67.00;;;;;;5011871;28;20022;-72
2022/04/13 09:33:26;;;;;;;4.15;1.05;;;16.90;66.90;;;;;;5011926;28;20493;-72
2022/04/13 09:35:53;;;;;;;2.72;1.00;;;17.00;67.00;;;;;;5027789;28;20052;-72
2022/04/13 09:38:19;;;;;;;2.13;1.00;;;16.90;66.80;;;;;;5031280;28;20459;-72
2022/04/13 09:40:45;;;;;;;1.95;0.80;;;16.90;66.80;;;;;;5031646;28;20109;-72
2022/04/13 09:43:14;;;;;;;2.08;0.90;;;17.00;66.90;;;;;;5024534;28;20018;-72
2022/04/13 09:45:44;;;;;;;3.50;1.00;;;16.90;66.80;;;;;;5011606;28;20074;-72
2022/04/13 09:48:14;;;;;;;3.03;1.30;;;16.90;66.80;;;;;;5011722;28;20503;-72
2022/04/13 09:50:41;;;;;;;3.22;1.05;;;16.90;66.80;;;;;;5011431;28;20028;-72
2022/04/13 09:53:07;;;;;;;2.17;0.98;;;16.90;66.80;;;;;;5011390;28;20029;-72
2022/04/13 09:55:52;;;;;;;1.88;1.02;;;16.90;66.80;;;;;;5011647;28;20022;-72
2022/04/13 09:58:18;;;;;;;2.47;1.00;;;16.90;66.80;;;;;;5011448;28;20389;-72
2022/04/13 10:00:45;;;;;;;2.35;0.90;;;16.90;66.80;;;;;;5011678;28;20026;-72
2022/04/13 10:03:18;;;;;;;1.60;0.90;;;16.90;66.80;;;;;;5011333;28;20025;-72
2022/04/13 10:05:45;;;;;;;3.13;0.90;;;16.90;66.80;;;;;;5011238;28;20477;-72
2022/04/13 10:08:12;;;;;;;2.38;1.33;;;16.90;66.80;;;;;;5011313;28;20018;-72
2022/04/13 10:10:42;;;;;;;3.38;1.00;;;16.90;66.80;;;;;;5012741;28;20026;-72
2022/04/13 10:13:08;;;;;;;1.27;0.85;;;16.90;66.80;;;;;;5011405;28;20029;-72
2022/04/13 10:15:34;;;;;;;1.13;0.80;;;16.90;66.70;;;;;;5011356;28;20030;-72
2022/04/13 10:18:00;;;;;;;5.05;1.05;;;16.90;66.70;;;;;;5011471;28;20060;-72
2022/04/13 10:20:45;;;;;;;1.90;1.00;;;16.90;66.70;;;;;;5010977;28;20045;-72
2022/04/13 10:23:11;;;;;;;2.13;1.10;;;16.90;66.50;;;;;;5011215;28;20388;-72
2022/04/13 10:25:36;;;;;;;2.05;0.90;;;16.90;66.70;;;;;;5011283;28;20037;-72
2022/04/13 10:28:02;;;;;;;2.50;1.08;;;16.90;66.70;;;;;;5012595;28;20018;-72
2022/04/13 10:30:35;;;;;;;3.15;0.80;;;16.90;66.70;;;;;;5010993;28;20025;-72
2022/04/13 10:33:05;;;;;;;5.30;0.90;;;16.90;66.60;;;;;;5012504;28;20473;-72
2022/04/13 10:35:33;;;;;;;1.88;0.70;;;16.90;66.60;;;;;;5022891;28;20037;-72
2022/04/13 10:37:58;;;;;;;4.07;1.10;;;16.90;66.70;;;;;;5030933;28;20492;-72
2022/04/13 10:40:25;;;;;;;1.10;0.60;;;16.90;66.60;;;;;;5030783;28;20032;-72
2022/04/13 10:42:51;;;;;;;2.03;0.77;;;16.90;66.60;;;;;;5026763;28;20022;-72
2022/04/13 10:45:17;;;;;;;1.27;0.70;;;16.90;66.60;;;;;;5011205;28;20053;-72
2022/04/13 10:47:52;;;;;;;2.58;1.15;;;16.90;66.60;;;;;;5010818;28;20070;-72
2022/04/13 10:50:45;;;;;;;3.03;0.80;;;16.90;66.60;;;;;;5015548;28;20416;-72
2022/04/13 10:53:23;;;;;;;2.90;0.90;;;16.90;66.30;;;;;;5016064;28;20038;-72
2022/04/13 10:56:02;;;;;;;1.52;0.80;;;16.90;66.60;;;;;;5015952;28;20542;-72
2022/04/13 10:58:52;;;;;;;1.80;0.90;;;16.90;66.50;;;;;;5014659;28;20478;-72
2022/04/13 11:01:19;;;;;;;3.08;0.80;;;16.90;66.40;;;;;;5015909;28;20026;-72
2022/04/13 11:03:46;;;;;;;2.72;1.00;;;16.90;66.60;;;;;;5015566;28;20022;-72
2022/04/13 11:06:11;;;;;;;1.73;0.75;;;16.90;66.60;;;;;;5014491;28;20092;-72
2022/04/13 11:08:57;;;;;;;2.08;0.70;;;16.90;66.60;;;;;;5015697;28;20428;-72
2022/04/13 11:11:24;;;;;;;2.42;0.77;;;16.90;66.30;;;;;;5014680;28;20018;-72
2022/04/13 11:13:51;;;;;;;1.50;0.75;;;16.80;66.50;;;;;;5014604;28;20480;-72
2022/04/13 11:16:20;;;;;;;2.05;1.00;;;16.80;66.50;;;;;;5014461;28;20022;-72
2022/04/13 11:19:03;;;;;;;1.38;0.65;;;16.90;66.50;;;;;;5014003;28;20029;-72
2022/04/13 11:21:29;;;;;;;1.63;0.97;;;16.90;66.20;;;;;;5015530;28;20522;-72
2022/04/13 11:23:55;;;;;;;2.80;0.85;;;16.90;66.50;;;;;;5014362;28;20260;-72
2022/04/13 11:26:35;;;;;;;2.75;0.70;;;16.80;66.40;;;;;;5014115;28;20143;-72
2022/04/13 11:29:10;;;;;;;2.30;0.80;;;16.90;66.40;;;;;;5015622;28;20526;-72
2022/04/13 11:32:06;;;;;;;1.75;0.75;;;16.90;66.40;;;;;;5015067;28;20460;-72
2022/04/13 11:34:50;;;;;;;1.30;0.75;;;16.90;66.20;;;;;;5019084;28;20036;-72
2022/04/13 11:37:16;;;;;;;2.58;0.98;;;16.90;66.30;;;;;;5035099;28;20100;-72
2022/04/13 11:39:48;;;;;;;1.67;0.82;;;16.80;66.40;;;;;;5034925;28;20220;-72
2022/04/13 11:42:34;;;;;;;1.85;1.08;;;16.80;66.30;;;;;;5033762;28;20024;-72
2022/04/13 11:45:11;;;;;;;1.42;0.82;;;16.90;66.20;;;;;;5010926;28;20037;-72
2022/04/13 11:47:46;;;;;;;1.73;0.75;;;16.90;66.30;;;;;;5013534;28;20412;-72
2022/04/13 11:50:14;;;;;;;1.63;0.88;;;16.80;66.40;;;;;;5013793;28;20045;-72
2022/04/13 11:52:49;;;;;;;2.03;0.80;;;16.80;66.30;;;;;;5015025;28;20033;-72
2022/04/13 11:55:24;;;;;;;1.15;0.70;;;16.90;66.40;;;;;;5014916;28;20030;-72
2022/04/13 11:58:06;;;;;;;2.58;1.00;;;16.90;67.40;;;;;;5013862;28;20022;-72
2022/04/13 12:01:07;;;;;;;1.13;0.63;;;16.90;66.20;;;;;;5013630;28;20022;-72
2022/04/13 12:03:37;;;;;;;1.85;0.68;;;16.90;66.10;;;;;;5009930;28;20129;-72
2022/04/13 12:06:03;;;;;;;2.53;0.90;;;16.80;66.40;;;;;;5013801;28;20018;-72
2022/04/13 12:08:33;;;;;;;1.33;0.63;;;16.80;66.30;;;;;;5014605;28;20030;-72
2022/04/13 12:10:59;;;;;;;1.67;0.55;;;16.80;66.30;;;;;;5013500;28;20043;-72
2022/04/13 12:13:25;;;;;;;2.17;0.80;;;16.90;66.40;;;;;;5013462;28;20114;-72
2022/04/13 12:15:53;;;;;;;1.48;0.70;;;16.90;66.30;;;;;;5013290;28;20570;-72
2022/04/13 12:18:22;;;;;;;0.80;0.77;;;16.90;66.30;;;;;;5013060;28;20030;-72
2022/04/13 12:20:49;;;;;;;1.48;0.73;;;16.90;66.30;;;;;;5014668;28;20022;-72
2022/04/13 12:23:19;;;;;;;2.05;1.13;;;16.90;66.20;;;;;;5012992;28;20485;-72
2022/04/13 12:25:46;;;;;;;1.40;0.70;;;16.90;66.20;;;;;;5013114;28;20021;-72
2022/04/13 12:28:11;;;;;;;1.40;0.70;;;16.90;66.20;;;;;;5013018;28;20030;-72
2022/04/13 12:30:37;;;;;;;1.83;0.55;;;16.90;66.20;;;;;;5012866;28;20108;-72
2022/04/13 12:33:13;;;;;;;1.83;0.70;;;16.90;66.20;;;;;;5013182;28;20033;-72
2022/04/13 12:35:53;;;;;;;4.05;1.10;;;16.90;66.10;;;;;;5026897;28;20033;-72
2022/04/13 12:38:35;;;;;;;4.03;0.90;;;16.90;66.10;;;;;;5033792;28;20029;-72
2022/04/13 12:41:01;;;;;;;1.55;0.70;;;16.90;66.20;;;;;;5032730;28;20503;-72
2022/04/13 12:43:27;;;;;;;0.93;0.68;;;16.90;66.20;;;;;;5024538;28;20026;-72
2022/04/13 12:45:53;;;;;;;1.65;0.80;;;16.90;66.20;;;;;;5012516;28;20038;-72
2022/04/13 12:48:26;;;;;;;0.73;0.60;;;16.90;66.20;;;;;;5012675;28;20033;-72
2022/04/13 12:50:59;;;;;;;;;;;16.90;66.10;;;;;;5014545;28;20097;-72